Time;durP1;ratioP1;P1;durP2;ratioP2;P2;SDS_P1;SDS_P2;PMS_P1;PMS_P2;Temp;Humidity;BMP_temperature;BMP_pressure;BME280_temperature;BME280_humidity;BME280_pressure;Samples;Min_cycle;Max_cycle;Signal;HPM_P1;HPM_P2
2022/12/05 00:00:31;;;;;;;4.15;3.20;;;;;;;3.43;81.99;102895.84;5101825;28;20044;-69
2022/12/05 00:02:57;;;;;;;4.70;3.10;;;;;;;3.52;81.99;102920.06;5114095;28;20062;-70
2022/12/05 00:05:25;;;;;;;4.95;3.20;;;;;;;3.67;82.42;102922.66;5087787;28;20039;-69
2022/12/05 00:07:50;;;;;;;5.63;3.08;;;;;;;3.57;82.64;102925.06;5105295;28;20038;-69
2022/12/05 00:10:16;;;;;;;4.88;3.30;;;;;;;3.36;82.92;102898.06;5114883;28;20110;-70
2022/12/05 00:12:41;;;;;;;3.83;2.70;;;;;;;3.50;82.79;102913.97;5101228;28;20032;-70
2022/12/05 00:15:11;;;;;;;4.32;3.20;;;;;;;3.34;82.96;102929.22;5110708;28;20030;-70
2022/12/05 00:17:37;;;;;;;4.60;3.00;;;;;;;3.46;83.82;102931.09;5108475;28;20031;-69
2022/12/05 00:20:03;;;;;;;3.63;3.03;;;;;;;3.51;82.86;102937.00;5086223;28;20035;-70
2022/12/05 00:22:28;;;;;;;4.95;3.33;;;;;;;3.39;83.41;102928.97;5113641;28;20095;-70
2022/12/05 00:24:54;;;;;;;4.68;3.50;;;;;;;3.15;84.83;102926.09;5101303;28;20435;-69
2022/12/05 00:27:19;;;;;;;4.30;2.92;;;;;;;3.27;84.65;102926.13;5091990;28;20031;-69
2022/12/05 00:29:44;;;;;;;4.53;3.60;;;;;;;3.11;84.61;102925.41;5091171;28;20042;-69
2022/12/05 00:32:10;;;;;;;5.13;3.40;;;;;;;3.06;85.61;102924.84;5103073;28;20108;-69
2022/12/05 00:34:36;;;;;;;4.90;3.28;;;;;;;2.95;85.62;102914.06;5114153;28;20521;-69
2022/12/05 00:37:02;;;;;;;5.13;3.63;;;;;;;3.02;85.82;102920.69;5101826;28;20031;-70
2022/12/05 00:39:30;;;;;;;6.10;3.85;;;;;;;3.20;84.81;102924.81;5107640;28;20032;-69
2022/12/05 00:41:55;;;;;;;4.15;3.35;;;;;;;3.20;84.01;102927.47;5109307;28;20031;-69
2022/12/05 00:44:20;;;;;;;4.25;3.40;;;;;;;3.01;84.53;102925.16;5083103;28;20105;-69
2022/12/05 00:46:46;;;;;;;6.03;3.65;;;;;;;2.86;85.04;102925.28;5114248;28;20024;-70
2022/12/05 00:49:11;;;;;;;5.57;3.75;;;;;;;2.69;85.80;102915.69;5104407;28;20071;-69
2022/12/05 00:51:39;;;;;;;5.53;3.92;;;;;;;2.70;86.59;102918.25;5089205;28;20028;-69
2022/12/05 00:54:08;;;;;;;6.80;3.35;;;;;;;2.84;85.47;102901.41;5111729;28;20028;-69
2022/12/05 00:56:34;;;;;;;4.22;3.22;;;;;;;2.73;86.76;102911.88;5100703;28;20031;-70
2022/12/05 00:59:01;;;;;;;6.40;3.85;;;;;;;2.79;85.97;102920.34;5117036;28;20063;-79
2022/12/05 01:01:33;;;;;;;4.10;3.47;;;;;;;2.73;85.62;102899.44;5104826;28;20039;-79
2022/12/05 01:04:01;;;;;;;4.90;3.65;;;;;;;2.74;86.36;102922.41;5113985;28;20039;-69
2022/12/05 01:06:27;;;;;;;6.57;3.88;;;;;;;2.79;85.71;102920.34;5116145;28;20508;-69
2022/12/05 01:08:56;;;;;;;5.32;3.75;;;;;;;2.97;85.41;102912.97;5101547;28;20070;-69
2022/12/05 01:11:23;;;;;;;4.22;3.00;;;;;;;2.92;85.49;102915.09;5109835;28;20028;-70
2022/12/05 01:13:49;;;;;;;5.63;3.53;;;;;;;3.04;84.56;102914.28;5090788;28;20024;-69
2022/12/05 01:16:26;;;;;;;5.75;3.55;;;;;;;2.95;84.61;102906.94;5100862;28;20039;-69
2022/12/05 01:18:53;;;;;;;6.43;3.80;;;;;;;2.90;84.78;102894.88;5083398;28;20086;-69
2022/12/05 01:21:20;;;;;;;4.35;3.58;;;;;;;2.76;85.05;102895.75;5109902;28;20078;-69
2022/12/05 01:23:45;;;;;;;4.65;3.50;;;;;;;2.77;85.06;102889.47;5108392;28;20517;-69
2022/12/05 01:26:13;;;;;;;6.18;3.53;;;;;;;2.99;85.04;102904.94;5100468;28;20043;-69
2022/12/05 01:28:39;;;;;;;6.45;3.28;;;;;;;2.99;84.19;102905.78;5112429;28;20102;-69
2022/12/05 01:31:15;;;;;;;4.43;3.13;;;;;;;2.94;84.55;102902.53;5101669;28;20043;-70
2022/12/05 01:33:41;;;;;;;5.28;3.30;;;;;;;2.71;84.46;102864.13;5104021;28;20502;-70
2022/12/05 01:36:10;;;;;;;4.63;3.30;;;;;;;2.70;85.63;102896.97;5109885;28;20039;-69
2022/12/05 01:38:37;;;;;;;4.45;3.50;;;;;;;2.75;85.81;102897.56;5100087;28;20035;-69
2022/12/05 01:41:05;;;;;;;5.80;3.90;;;;;;;2.93;85.40;102886.69;5111504;28;20020;-69
2022/12/05 01:43:31;;;;;;;3.83;3.10;;;;;;;2.67;86.14;102883.88;5106134;28;20103;-71
2022/12/05 01:45:57;;;;;;;5.32;3.10;;;;;;;2.64;86.11;102888.53;5085366;28;20487;-69
2022/12/05 01:48:31;;;;;;;4.65;3.20;;;;;;;2.67;85.92;102878.56;5113522;28;20032;-69
2022/12/05 01:50:58;;;;;;;4.40;2.97;;;;;;;2.74;85.54;102887.00;5085269;28;20053;-70
2022/12/05 01:53:25;;;;;;;4.38;3.30;;;;;;;2.44;85.92;102842.78;5108811;28;20162;-69
2022/12/05 01:55:51;;;;;;;3.60;2.90;;;;;;;2.55;86.65;102874.88;5107051;28;20031;-69
2022/12/05 01:58:18;;;;;;;4.40;3.58;;;;;;;2.70;86.34;102878.38;5101670;28;20032;-69
2022/12/05 02:00:44;;;;;;;4.93;3.53;;;;;;;2.73;86.25;102872.00;5111748;28;20115;-69
2022/12/05 02:03:16;;;;;;;5.47;3.00;;;;;;;2.50;86.56;102860.16;5103067;28;20047;-69
2022/12/05 02:05:42;;;;;;;3.78;3.03;;;;;;;2.62;86.25;102866.53;5106623;28;20046;-70
2022/12/05 02:08:09;;;;;;;4.38;3.20;;;;;;;2.46;86.97;102863.97;5109797;28;20039;-70
2022/12/05 02:10:41;;;;;;;3.70;3.28;;;;;;;2.47;86.89;102863.88;5098789;28;20040;-69
2022/12/05 02:13:34;;;;;;;4.13;2.70;;;;;;;2.56;86.32;102867.75;5111477;28;20089;-69
2022/12/05 02:16:07;;;;;;;5.28;3.17;;;;;;;2.63;86.21;102862.91;5109839;28;20059;-69
2022/12/05 02:19:07;;;;;;;4.90;3.35;;;;;;;2.70;86.01;102878.38;5097495;28;20087;-70
2022/12/05 02:22:04;;;;;;;4.47;3.10;;;;;;;2.39;86.85;102867.97;5084647;28;20060;-69
2022/12/05 02:24:51;;;;;;;4.65;2.88;;;;;;;2.56;86.26;102865.97;5073760;28;20100;-71
2022/12/05 02:27:54;;;;;;;4.00;3.20;;;;;;;2.62;85.72;102864.72;5081398;28;20047;-70
2022/12/05 02:30:22;;;;;;;3.70;2.47;;;;;;;2.51;86.75;102861.88;5078285;28;20032;-69
2022/12/05 02:33:19;;;;;;;4.38;3.47;;;;;;;2.42;86.58;102852.69;5090739;28;20028;-70
2022/12/05 02:36:19;;;;;;;5.70;3.38;;;;;;;2.51;86.92;102857.41;5047510;28;20040;-69
2022/12/05 02:39:04;;;;;;;3.38;2.85;;;;;;;2.49;86.08;102861.13;5080158;28;20040;-69
2022/12/05 02:41:45;;;;;;;5.05;3.10;;;;;;;2.44;86.97;102863.19;5088592;28;20132;-69
2022/12/05 02:44:19;;;;;;;4.80;2.83;;;;;;;2.22;87.09;102819.41;5074981;28;20546;-69
2022/12/05 02:46:47;;;;;;;4.87;3.50;;;;;;;2.33;86.97;102826.69;5063857;28;20550;-69
2022/12/05 02:49:17;;;;;;;4.35;3.40;;;;;;;2.50;86.29;102850.38;5073932;28;20032;-69
2022/12/05 02:51:51;;;;;;;4.72;3.35;;;;;;;2.50;87.30;102852.19;5076520;28;20066;-69
2022/12/05 02:54:26;;;;;;;6.43;3.22;;;;;;;2.58;86.69;102849.91;5104579;28;20039;-70
2022/12/05 02:56:55;;;;;;;4.53;3.13;;;;;;;2.54;86.96;102851.91;5086740;28;20051;-70
2022/12/05 02:59:20;;;;;;;5.05;3.20;;;;;;;2.62;86.32;102839.97;5112013;28;20047;-74
2022/12/05 03:01:46;;;;;;;4.85;3.42;;;;;;;2.68;86.14;102845.72;5125778;28;20108;-86
2022/12/05 03:04:13;;;;;;;4.88;3.53;;;;;;;2.69;85.92;102843.94;5119999;28;20050;-72
2022/12/05 03:06:58;;;;;;;5.68;3.63;;;;;;;2.68;86.05;102844.84;5118265;28;20071;-69
2022/12/05 03:09:35;;;;;;;5.63;3.45;;;;;;;2.73;85.69;102835.66;5108275;28;20024;-70
2022/12/05 03:12:00;;;;;;;5.88;3.55;;;;;;;2.58;85.85;102831.28;5105342;28;20061;-69
2022/12/05 03:14:46;;;;;;;4.72;3.40;;;;;;;2.55;86.67;102831.47;5115055;28;20031;-69
2022/12/05 03:17:18;;;;;;;5.25;3.53;;;;;;;2.40;86.94;102835.97;5091502;28;20030;-69
2022/12/05 03:19:48;;;;;;;4.65;2.80;;;;;;;2.38;87.76;102834.34;5109347;28;20043;-70
2022/12/05 03:22:59;;;;;;;4.03;2.95;;;;;;;2.64;86.84;102838.03;5112662;28;20435;-69
2022/12/05 03:25:33;;;;;;;4.43;3.33;;;;;;;2.62;86.64;102835.50;5044390;28;20049;-70
2022/12/05 03:28:13;;;;;;;4.78;2.90;;;;;;;2.53;86.92;102828.09;5036674;28;20140;-69
2022/12/05 03:30:41;;;;;;;5.05;3.00;;;;;;;2.59;86.32;102825.06;5054456;28;20032;-69
2022/12/05 03:33:19;;;;;;;5.20;3.67;;;;;;;2.54;86.37;102819.16;5056184;28;20036;-69
2022/12/05 03:35:58;;;;;;;5.55;3.40;;;;;;;2.41;86.98;102823.53;5056220;28;20044;-69
2022/12/05 03:38:33;;;;;;;4.63;3.40;;;;;;;2.30;87.99;102821.56;5040117;28;20488;-69
2022/12/05 03:41:12;;;;;;;5.00;3.50;;;;;;;2.36;87.88;102821.19;5041722;28;20128;-69
2022/12/05 03:43:58;;;;;;;4.47;3.65;;;;;;;2.31;87.57;102820.59;5056083;28;20048;-69
2022/12/05 03:46:29;;;;;;;4.95;3.65;;;;;;;2.48;87.47;102808.91;5039541;28;20037;-69
2022/12/05 03:49:29;;;;;;;4.63;3.15;;;;;;;2.53;87.04;102810.34;5038716;28;20049;-69
2022/12/05 03:52:03;;;;;;;5.55;3.67;;;;;;;2.54;86.68;102808.53;5055453;28;20044;-69
2022/12/05 03:54:56;;;;;;;5.50;3.10;;;;;;;2.41;86.80;102804.94;5038976;28;20104;-70
2022/12/05 03:57:27;;;;;;;4.30;3.10;;;;;;;2.43;86.97;102795.94;5076951;28;20071;-69
2022/12/05 04:00:14;;;;;;;5.25;3.20;;;;;;;2.45;87.33;102809.97;5068487;28;20422;-69
2022/12/05 04:02:54;;;;;;;5.50;3.60;;;;;;;2.44;86.96;102799.44;5075804;28;20114;-69
2022/12/05 04:05:24;;;;;;;4.78;2.85;;;;;;;2.67;86.55;102808.59;5083077;28;20495;-69
2022/12/05 04:08:02;;;;;;;5.32;3.40;;;;;;;2.65;85.74;102798.09;5084886;28;20078;-69
2022/12/05 04:10:47;;;;;;;4.38;3.20;;;;;;;2.44;86.12;102771.06;5092284;28;20028;-69
2022/12/05 04:13:26;;;;;;;4.60;3.40;;;;;;;2.61;86.04;102795.69;5067474;28;20055;-69
2022/12/05 04:18:57;;;;;;;3.75;2.78;;;;;;;2.66;86.34;102797.13;5092190;28;20043;-70
2022/12/05 04:21:39;;;;;;;5.50;3.45;;;;;;;2.20;86.13;102757.53;5066523;28;20060;-70
2022/12/05 04:27:44;;;;;;;4.45;3.58;;;;;;;2.66;85.72;102781.19;5064148;28;20531;-69
2022/12/05 04:30:15;;;;;;;4.35;3.17;;;;;;;2.65;86.10;102779.47;5061357;28;20036;-69
2022/12/05 04:33:04;;;;;;;5.25;3.20;;;;;;;2.57;85.65;102776.44;5071706;28;20024;-69
2022/12/05 04:35:39;;;;;;;5.00;3.53;;;;;;;2.52;86.11;102767.94;5091830;28;20035;-69
2022/12/05 04:38:10;;;;;;;4.72;3.33;;;;;;;2.32;87.21;102750.59;5103429;28;20506;-70
2022/12/05 04:40:59;;;;;;;6.65;3.28;;;;;;;2.66;86.45;102759.06;5114148;28;20410;-69
2022/12/05 04:43:27;;;;;;;4.05;2.42;;;;;;;2.41;87.09;102747.34;5117106;27;20141;-70
2022/12/05 04:45:56;;;;;;;4.63;3.60;;;;;;;2.57;86.35;102753.38;5106308;28;20035;-70
2022/12/05 04:48:23;;;;;;;4.93;3.17;;;;;;;2.31;86.61;102719.66;5113378;28;20227;-70
2022/12/05 04:50:52;;;;;;;4.70;3.00;;;;;;;2.49;87.21;102765.47;5099946;28;20035;-71
2022/12/05 04:53:39;;;;;;;4.68;3.42;;;;;;;2.43;87.06;102756.06;5110730;28;20027;-69
2022/12/05 04:56:05;;;;;;;5.53;3.30;;;;;;;2.57;86.42;102760.50;5074675;28;20045;-69
2022/12/05 04:58:31;;;;;;;5.20;3.67;;;;;;;2.27;87.04;102737.59;5057468;28;20037;-69
2022/12/05 05:01:23;;;;;;;6.03;3.42;;;;;;;2.46;87.45;102763.00;5074127;28;20129;-69
2022/12/05 05:04:01;;;;;;;6.95;3.58;;;;;;;2.30;87.33;102765.78;5057852;28;20442;-68
2022/12/05 05:06:27;;;;;;;4.40;3.63;;;;;;;2.39;87.36;102757.22;5074373;28;20048;-68
2022/12/05 05:08:55;;;;;;;4.10;3.00;;;;;;;2.43;86.43;102724.19;5057953;28;20477;-70
2022/12/05 05:11:31;;;;;;;3.88;3.30;;;;;;;2.48;87.44;102756.63;5054843;28;20052;-69
2022/12/05 05:13:56;;;;;;;5.65;3.60;;;;;;;2.61;86.20;102748.72;5066122;28;20032;-70
2022/12/05 05:16:25;;;;;;;4.50;3.25;;;;;;;2.34;86.91;102733.59;5075701;28;20074;-71
2022/12/05 05:18:51;;;;;;;4.07;3.08;;;;;;;2.38;87.38;102759.97;5078247;28;20089;-68
2022/12/05 05:21:23;;;;;;;4.35;3.35;;;;;;;2.40;87.25;102756.28;5074634;28;20024;-67
2022/12/05 05:23:49;;;;;;;4.05;3.20;;;;;;;2.34;87.89;102765.47;5074800;28;20434;-68
2022/12/05 05:26:15;;;;;;;5.30;3.35;;;;;;;2.13;88.09;102744.75;5062083;28;20048;-68
2022/12/05 05:28:40;;;;;;;5.53;3.25;;;;;;;2.34;86.79;102748.69;5111927;28;20136;-70
2022/12/05 05:31:06;;;;;;;5.40;3.60;;;;;;;2.46;87.13;102752.38;5083248;28;20091;-72
2022/12/05 05:33:33;;;;;;;4.32;2.90;;;;;;;2.34;87.45;102768.13;5107882;28;20040;-72
2022/12/05 05:36:07;;;;;;;6.07;3.60;;;;;;;2.30;87.30;102715.31;5108485;28;20053;-74
2022/12/05 05:38:37;;;;;;;5.45;3.55;;;;;;;2.23;87.85;102748.53;5100846;28;20024;-74
2022/12/05 05:41:03;;;;;;;3.90;2.55;;;;;;;2.44;87.51;102743.63;5112873;28;20036;-74
2022/12/05 05:43:28;;;;;;;4.70;3.42;;;;;;;2.27;87.10;102734.94;5087279;28;20032;-74
2022/12/05 05:45:54;;;;;;;4.88;3.55;;;;;;;2.27;87.24;102732.28;5069981;28;20028;-73
2022/12/05 05:48:19;;;;;;;4.28;3.25;;;;;;;2.22;87.94;102726.44;5110271;28;20028;-73
2022/12/05 05:50:45;;;;;;;4.38;3.45;;;;;;;2.31;87.27;102723.16;5103968;28;20023;-73
2022/12/05 05:53:11;;;;;;;6.40;3.40;;;;;;;2.46;86.55;102733.78;5118772;28;20072;-73
2022/12/05 05:55:39;;;;;;;4.95;3.22;;;;;;;2.33;86.85;102702.69;5098070;28;20047;-73
2022/12/05 05:58:05;;;;;;;3.83;3.10;;;;;;;2.29;86.30;102682.59;5133610;28;20003;-72
2022/12/05 06:00:30;;;;;;;4.00;2.92;;;;;;;2.54;85.90;102724.34;5098488;28;20046;-73
2022/12/05 06:02:56;;;;;;;4.00;3.08;;;;;;;2.39;86.54;102719.19;5124417;28;20028;-72
2022/12/05 06:05:21;;;;;;;4.30;3.03;;;;;;;2.48;86.32;102730.03;5098919;28;20031;-73
2022/12/05 06:07:46;;;;;;;5.90;3.00;;;;;;;2.44;86.36;102709.09;5118907;28;20119;-68
2022/12/05 06:10:12;;;;;;;4.32;3.20;;;;;;;2.34;86.77;102712.34;5105252;28;20057;-69
2022/12/05 06:12:37;;;;;;;4.28;3.05;;;;;;;2.16;86.94;102691.44;5115620;28;20024;-68
2022/12/05 06:15:03;;;;;;;4.95;3.13;;;;;;;2.40;86.60;102708.44;5128082;28;20036;-74
2022/12/05 06:17:29;;;;;;;6.82;3.80;;;;;;;2.34;86.47;102699.06;5104937;28;20091;-69
2022/12/05 06:19:54;;;;;;;3.92;3.15;;;;;;;2.39;86.32;102712.06;5121838;28;20030;-71
2022/12/05 06:22:20;;;;;;;4.15;2.92;;;;;;;2.25;85.91;102677.53;5128338;28;20051;-71
2022/12/05 06:24:45;;;;;;;4.50;3.25;;;;;;;2.33;86.41;102683.22;5117743;28;20036;-69
2022/12/05 06:27:11;;;;;;;3.88;3.22;;;;;;;2.65;84.79;102721.00;5128983;28;20036;-72
2022/12/05 06:29:36;;;;;;;3.85;3.13;;;;;;;2.48;85.34;102692.84;5123378;28;20036;-69
2022/12/05 06:32:02;;;;;;;3.40;3.10;;;;;;;2.69;84.81;102719.84;5122137;28;20032;-69
2022/12/05 06:34:27;;;;;;;4.10;3.08;;;;;;;2.47;84.81;102685.00;5130986;28;20024;-68
2022/12/05 06:36:53;;;;;;;5.45;3.15;;;;;;;2.59;84.91;102713.44;5118227;28;20030;-69
2022/12/05 06:39:18;;;;;;;5.03;3.13;;;;;;;2.47;85.90;102711.56;5128518;28;20028;-68
2022/12/05 06:41:43;;;;;;;5.13;3.05;;;;;;;2.55;85.13;102711.91;5125134;28;20023;-69
2022/12/05 06:44:09;;;;;;;5.65;3.47;;;;;;;2.53;84.89;102714.66;5121028;28;20032;-70
2022/12/05 06:46:34;;;;;;;5.40;2.95;;;;;;;2.61;85.02;102714.16;5130717;28;20087;-68
2022/12/05 06:49:00;;;;;;;5.28;3.42;;;;;;;2.32;86.05;102698.31;5117932;28;20043;-70
2022/12/05 06:51:25;;;;;;;3.90;2.80;;;;;;;2.48;85.56;102714.09;5110715;28;20043;-69
2022/12/05 06:53:51;;;;;;;5.25;3.40;;;;;;;2.44;85.72;102704.63;5126453;28;20229;-70
2022/12/05 06:56:18;;;;;;;4.57;3.17;;;;;;;2.46;85.60;102710.72;5121005;28;20024;-69
2022/12/05 06:58:46;;;;;;;3.88;2.70;;;;;;;2.17;85.63;102662.13;5132694;28;20100;-71
2022/12/05 07:04:02;;;;;;;3.10;2.40;;;;;;;2.47;85.62;102719.53;5123648;28;20039;-72
2022/12/05 07:06:27;;;;;;;3.92;2.95;;;;;;;2.47;85.71;102720.38;5127111;28;20031;-72
2022/12/05 07:08:53;;;;;;;4.90;3.03;;;;;;;2.43;85.11;102687.00;5114595;27;20109;-71
2022/12/05 07:11:18;;;;;;;4.82;3.03;;;;;;;2.80;84.06;102721.78;5091541;28;20086;-71
2022/12/05 07:13:44;;;;;;;4.43;2.92;;;;;;;2.74;83.91;102723.03;5117821;28;20028;-72
2022/12/05 07:16:09;;;;;;;6.30;3.22;;;;;;;2.64;84.39;102716.63;5113664;28;20521;-72
2022/12/05 07:18:36;;;;;;;4.22;2.97;;;;;;;2.62;84.00;102710.56;5124802;28;20027;-71
2022/12/05 07:21:06;;;;;;;4.35;3.10;;;;;;;2.49;84.48;102707.00;5110232;28;20032;-72
2022/12/05 07:23:32;;;;;;;4.05;3.22;;;;;;;2.55;84.40;102701.28;5118964;28;20016;-72
2022/12/05 07:25:57;;;;;;;5.03;3.20;;;;;;;2.65;84.32;102715.69;5119202;28;20035;-72
2022/12/05 07:28:23;;;;;;;4.38;3.00;;;;;;;2.73;83.73;102720.50;5111252;28;20579;-71
2022/12/05 07:30:59;;;;;;;4.80;2.70;;;;;;;2.42;84.73;102684.41;5124112;28;20028;-71
2022/12/05 07:33:24;;;;;;;4.03;3.08;;;;;;;2.66;84.44;102717.38;5113057;28;20513;-73
2022/12/05 07:35:50;;;;;;;4.15;2.88;;;;;;;2.56;84.48;102711.81;5115454;28;20012;-71
2022/12/05 07:38:16;;;;;;;3.80;3.00;;;;;;;2.72;84.12;102706.34;5120333;28;20065;-70
2022/12/05 07:40:42;;;;;;;4.70;2.92;;;;;;;2.59;83.72;102718.75;5108787;28;20068;-71
2022/12/05 07:43:07;;;;;;;3.53;2.42;;;;;;;2.31;84.75;102693.94;5114406;28;20040;-71
2022/12/05 07:45:34;;;;;;;8.75;3.00;;;;;;;2.54;84.85;102712.88;5106404;28;20039;-71
2022/12/05 07:47:59;;;;;;;4.68;3.13;;;;;;;2.55;85.29;102718.09;5107904;28;20024;-71
2022/12/05 07:50:25;;;;;;;4.45;2.85;;;;;;;2.52;85.06;102709.47;5113618;28;20045;-70
2022/12/05 07:52:51;;;;;;;3.38;2.92;;;;;;;2.54;85.27;102710.22;5084645;28;20040;-73
2022/12/05 07:55:16;;;;;;;3.60;2.83;;;;;;;2.52;84.81;102704.16;5112411;28;20028;-71
2022/12/05 07:57:42;;;;;;;4.28;2.80;;;;;;;2.65;84.54;102712.16;5090563;28;20024;-70
2022/12/05 08:00:08;;;;;;;3.58;2.70;;;;;;;2.66;83.98;102712.06;5087825;28;20056;-69
2022/12/05 08:02:33;;;;;;;5.80;2.97;;;;;;;2.50;84.51;102698.06;5113698;28;20039;-68
2022/12/05 08:04:58;;;;;;;5.45;3.42;;;;;;;2.71;85.09;102696.66;5102121;28;20035;-70
2022/12/05 08:07:24;;;;;;;5.55;2.88;;;;;;;2.68;83.44;102698.66;5093887;28;20085;-71
2022/12/05 08:09:49;;;;;;;5.15;2.97;;;;;;;2.39;84.75;102697.94;5108226;28;20046;-69
2022/12/05 08:12:15;;;;;;;3.92;2.65;;;;;;;2.52;84.80;102709.47;5103416;28;20031;-69
2022/12/05 08:14:40;;;;;;;4.47;3.00;;;;;;;2.57;84.96;102702.03;5115340;28;20110;-68
2022/12/05 08:17:05;;;;;;;3.55;2.80;;;;;;;2.67;84.86;102696.97;5102243;28;20033;-70
2022/12/05 08:19:31;;;;;;;3.83;2.80;;;;;;;2.82;83.27;102695.97;5111134;28;20040;-71
2022/12/05 08:21:56;;;;;;;6.97;2.85;;;;;;;2.97;82.79;102694.91;5109232;28;20038;-72
2022/12/05 08:24:23;;;;;;;5.55;2.88;;;;;;;2.95;82.50;102691.53;5102855;28;20150;-72
2022/12/05 08:26:49;;;;;;;3.28;2.50;;;;;;;3.15;82.06;102695.50;5097765;27;20405;-73
2022/12/05 08:29:15;;;;;;;5.50;2.80;;;;;;;2.97;82.61;102686.09;5086245;28;20043;-73
2022/12/05 08:31:46;;;;;;;4.47;2.70;;;;;;;2.89;83.45;102680.47;5110058;28;20495;-72
2022/12/05 08:34:12;;;;;;;2.92;2.22;;;;;;;2.63;83.74;102659.13;5097717;28;20047;-72
2022/12/05 08:36:38;;;;;;;4.18;2.45;;;;;;;2.68;83.39;102683.59;5114932;28;20028;-69
2022/12/05 08:39:06;;;;;;;4.45;2.50;;;;;;;3.03;82.95;102688.34;5102438;28;20050;-70
2022/12/05 08:41:31;;;;;;;8.98;2.85;;;;;;;2.73;83.00;102662.00;5109838;28;20081;-69
2022/12/05 08:44:00;;;;;;;3.03;2.50;;;;;;;2.88;83.00;102684.94;5108060;28;20028;-68
2022/12/05 08:46:25;;;;;;;3.72;2.30;;;;;;;3.05;82.79;102681.97;5102873;28;20040;-71
2022/12/05 08:48:51;;;;;;;3.97;2.67;;;;;;;2.92;82.41;102688.22;5114310;28;20402;-70
2022/12/05 08:51:16;;;;;;;4.07;2.85;;;;;;;3.08;82.20;102670.28;5102006;28;20026;-69
2022/12/05 08:53:42;;;;;;;5.18;2.80;;;;;;;3.07;82.23;102676.53;5108043;28;20028;-68
2022/12/05 08:56:09;;;;;;;3.35;2.70;;;;;;;3.09;82.37;102681.78;5092410;28;20561;-68
2022/12/05 08:58:35;;;;;;;3.28;2.40;;;;;;;3.09;81.87;102684.44;5101438;28;20478;-69
2022/12/05 09:01:10;;;;;;;3.47;2.50;;;;;;;2.96;81.90;102689.72;5113340;28;20032;-70
2022/12/05 09:03:36;;;;;;;2.78;2.13;;;;;;;2.84;82.58;102672.78;5106143;28;20027;-69
2022/12/05 09:06:06;;;;;;;4.70;2.63;;;;;;;3.02;82.38;102691.97;5105863;28;20111;-70
2022/12/05 09:08:31;;;;;;;3.50;2.50;;;;;;;2.94;82.68;102686.31;5113772;28;20027;-70
2022/12/05 09:10:57;;;;;;;3.75;3.03;;;;;;;3.03;82.46;102696.31;5099985;28;20040;-70
2022/12/05 09:13:23;;;;;;;4.18;2.40;;;;;;;3.35;81.03;102685.31;5110340;28;20043;-70
2022/12/05 09:15:48;;;;;;;4.10;2.88;;;;;;;3.23;81.57;102682.53;5108197;28;20031;-72
2022/12/05 09:18:14;;;;;;;4.28;2.90;;;;;;;3.27;80.95;102680.50;5103303;28;20772;-71
2022/12/05 09:20:39;;;;;;;2.97;2.50;;;;;;;3.21;81.03;102664.94;5113485;28;20035;-71
2022/12/05 09:23:04;;;;;;;5.20;2.70;;;;;;;3.25;81.29;102662.00;5102054;28;20084;-69
2022/12/05 09:25:30;;;;;;;5.68;3.10;;;;;;;3.10;82.17;102681.66;5091974;28;20039;-70
2022/12/05 09:27:56;;;;;;;4.82;2.60;;;;;;;2.98;81.81;102658.53;5108654;28;20066;-71
2022/12/05 09:30:21;;;;;;;5.50;2.88;;;;;;;3.19;81.81;102665.06;5085579;28;20039;-71
2022/12/05 09:32:47;;;;;;;5.45;2.83;;;;;;;3.13;81.55;102667.31;5114460;28;20050;-72
2022/12/05 09:35:12;;;;;;;4.75;2.75;;;;;;;2.91;82.01;102668.75;5102334;28;20513;-71
2022/12/05 09:37:37;;;;;;;5.78;2.90;;;;;;;2.96;82.51;102669.28;5109352;28;20064;-72
2022/12/05 09:40:04;;;;;;;4.07;2.70;;;;;;;3.02;82.84;102660.91;5108880;28;20035;-70
2022/12/05 09:42:42;;;;;;;8.30;3.15;;;;;;;3.18;82.32;102666.03;5100515;28;20036;-70
2022/12/05 09:45:21;;;;;;;4.68;2.70;;;;;;;3.26;81.99;102655.69;5085526;28;20115;-71
2022/12/05 09:47:52;;;;;;;4.18;2.60;;;;;;;3.29;81.36;102658.16;5110041;28;20032;-71
2022/12/05 09:50:32;;;;;;;4.10;2.83;;;;;;;3.40;81.53;102659.22;5114847;28;20077;-71
2022/12/05 09:53:22;;;;;;;4.07;2.65;;;;;;;3.33;80.89;102647.31;5105468;28;20119;-72
2022/12/05 09:55:56;;;;;;;4.35;3.38;;;;;;;3.30;81.31;102653.69;5112435;28;20081;-73
2022/12/05 09:58:27;;;;;;;4.75;2.97;;;;;;;3.23;81.69;102639.09;5116135;28;20049;-73
2022/12/05 10:01:30;;;;;;;6.72;3.50;;;;;;;3.49;80.86;102656.78;5104728;28;20040;-73
2022/12/05 10:04:22;;;;;;;7.88;3.53;;;;;;;3.40;79.79;102624.63;5110334;28;20028;-72
2022/12/05 10:06:50;;;;;;;4.07;2.65;;;;;;;3.39;80.39;102645.06;5118252;28;20397;-69
2022/12/05 10:09:44;;;;;;;4.43;3.00;;;;;;;3.36;81.33;102647.09;5105779;28;20091;-72
2022/12/05 10:12:24;;;;;;;7.25;3.42;;;;;;;3.58;80.43;102644.63;5107703;28;20030;-72
2022/12/05 10:15:14;;;;;;;25.25;13.45;;;;;;;3.53;80.16;102649.41;5117243;28;20024;-67
2022/12/05 10:17:45;;;;;;;3.55;2.80;;;;;;;3.50;79.79;102634.50;5109586;28;20079;-70
2022/12/05 10:20:19;;;;;;;4.35;3.05;;;;;;;3.40;80.28;102630.78;5106822;28;20035;-71
2022/12/05 10:22:55;;;;;;;3.53;2.78;;;;;;;3.28;80.37;102624.53;5115796;28;20055;-71
2022/12/05 10:25:22;;;;;;;4.47;2.70;;;;;;;3.36;79.82;102608.03;5106203;28;20039;-71
2022/12/05 10:27:51;;;;;;;4.90;2.70;;;;;;;3.40;80.24;102606.84;5110315;28;20031;-71
2022/12/05 10:30:20;;;;;;;5.28;3.17;;;;;;;3.69;79.37;102628.75;5113939;28;20058;-72
2022/12/05 10:32:51;;;;;;;5.90;3.08;;;;;;;3.77;79.79;102622.84;5104019;28;20031;-72
2022/12/05 10:35:33;;;;;;;5.72;2.67;;;;;;;3.58;80.03;102620.69;5113745;28;20024;-71
2022/12/05 10:38:03;;;;;;;3.95;2.67;;;;;;;3.77;79.36;102614.88;5109433;28;20032;-72
2022/12/05 10:40:40;;;;;;;8.07;3.03;;;;;;;3.55;80.16;102610.25;5116394;28;20038;-72
2022/12/05 10:43:09;;;;;;;8.57;2.92;;;;;;;3.63;79.84;102604.38;5086386;28;20047;-71
2022/12/05 10:45:43;;;;;;;4.68;2.92;;;;;;;3.54;80.61;102603.19;5111595;28;20031;-71
2022/12/05 10:48:13;;;;;;;;;;;;;;;3.40;80.39;102598.84;5111985;28;20171;-71
2022/12/05 10:50:41;;;;;;;4.50;2.70;;;;;;;3.34;80.82;102585.13;5103788;28;19912;-71
2022/12/05 10:53:07;;;;;;;4.45;2.92;;;;;;;3.40;80.71;102598.84;5116653;28;20024;-71
2022/12/05 10:55:40;;;;;;;5.25;2.92;;;;;;;3.51;80.54;102601.63;5107283;28;20038;-71
2022/12/05 10:58:22;;;;;;;5.40;2.95;;;;;;;3.55;80.05;102591.63;5108040;27;20032;-72
2022/12/05 11:00:50;;;;;;;5.82;3.70;;;;;;;3.67;79.95;102588.06;5116707;28;20074;-71
2022/12/05 11:03:35;;;;;;;6.53;2.90;;;;;;;3.68;78.71;102568.47;5103647;28;20429;-71
2022/12/05 11:06:23;;;;;;;6.60;2.92;;;;;;;3.79;79.30;102583.66;5106981;28;20564;-71
2022/12/05 11:08:55;;;;;;;6.00;3.58;;;;;;;3.66;79.09;102569.53;5090042;28;20070;-71
2022/12/05 11:11:27;;;;;;;4.30;2.55;;;;;;;3.66;79.18;102558.91;5114443;27;20032;-71
2022/12/05 11:14:03;;;;;;;4.45;2.70;;;;;;;3.81;78.95;102572.91;5108569;28;20016;-71
2022/12/05 11:16:37;;;;;;;5.43;3.13;;;;;;;3.86;79.08;102566.28;5104537;28;20505;-71
2022/12/05 11:19:20;;;;;;;3.67;2.85;;;;;;;3.59;79.90;102562.97;5114997;28;20053;-71
2022/12/05 11:21:47;;;;;;;3.35;2.65;;;;;;;3.72;78.99;102558.47;5108859;28;20031;-71
2022/12/05 11:24:25;;;;;;;3.92;2.92;;;;;;;3.79;79.80;102553.53;5105564;28;20036;-71
2022/12/05 11:26:50;;;;;;;6.25;2.70;;;;;;;3.76;78.76;102552.78;5116070;28;20027;-72
2022/12/05 11:29:36;;;;;;;4.88;2.80;;;;;;;3.63;79.58;102544.00;5103459;28;20038;-71
2022/12/05 11:32:04;;;;;;;4.13;3.00;;;;;;;3.69;79.57;102542.69;5107476;28;20040;-71
2022/12/05 11:34:41;;;;;;;4.50;2.53;;;;;;;3.81;78.82;102527.63;5114775;28;20038;-71
2022/12/05 11:37:21;;;;;;;4.43;2.65;;;;;;;3.72;79.31;102534.50;5086682;28;20031;-71
2022/12/05 11:39:46;;;;;;;6.80;3.25;;;;;;;3.67;78.99;102521.50;5109863;28;20032;-75
2022/12/05 11:42:50;;;;;;;3.97;2.83;;;;;;;3.65;80.00;102541.22;5110021;28;20506;-71
2022/12/05 11:45:44;;;;;;;4.47;2.97;;;;;;;3.75;79.65;102526.28;5051716;28;20045;-71
2022/12/05 11:48:18;;;;;;;6.85;2.85;;;;;;;3.80;79.31;102523.28;5110323;28;20047;-69
2022/12/05 11:51:02;;;;;;;5.28;2.80;;;;;;;3.90;79.13;102525.13;5102476;28;20393;-71
2022/12/05 11:53:34;;;;;;;5.72;2.60;;;;;;;3.83;79.20;102518.56;5108884;28;20036;-71
2022/12/05 11:56:34;;;;;;;7.38;3.00;;;;;;;3.89;78.77;102522.59;5109922;28;20053;-70
2022/12/05 11:59:15;;;;;;;6.45;2.75;;;;;;;3.93;78.36;102529.41;5101934;28;20048;-71
2022/12/05 12:01:46;;;;;;;3.75;2.75;;;;;;;3.87;78.37;102519.19;5110460;28;20579;-71